0TE8 weather

Texas World Speedway Helistop Nr 1 Heliport
College Station, Texas, United States

Public forecast

Using degrees Fahrenheit for public forecast. Weather courtesy of forecast.io.

Closest aviation weather report (METAR) to Texas World Speedway Helistop Nr 1 Heliport

Closest report is Easterwood Field, 7.9 nm (14.5 km) WNW. Retrieved 2020/08/05 15:53 UTC (35 minutes ago):

KCLL 051553Z 20005KT 10SM CLR 31/21 A3002 RMK AO2 SLP159 T03110211

Closest aviation forecast (TAF) to Texas World Speedway Helistop Nr 1 Heliport

Closest forecast is Easterwood Field, 7.9 nm (14.5 km) WNW. Retrieved 2020/08/05 12:30 UTC (4 hours ago):

TAF KCLL 051128Z 0512/0612 18006KT P6SM FEW060 FM051500 20006KT P6SM SCT040 FM060000 15007KT P6SM BKN250